PWSweather.com
Personal Weather Stations
Station Observations

ChardChardGB

Lat: 50.877408, Lon: -2.94964741

Elevation: 341

Station Type: WS3083

http://www.merriott-astro.co.uk/weather/index.htm

High Low Average
Temperature 53.2°F11.8°C 43.0°F6.1°C 47.6°F8.7°C
Dew Point 38.4°F3.6°C 31.1°F-0.5°C 35.0°F1.7°C
Winds 21.7 mph 34.9 kmh 4.8 mph 7.7 kmh 13.0 mph WNW20.9 kmh WNW
Wind Gusts 33.6 mph54.1 kmh 8.3 mph13.4 kmh 18.0 mph29.0 kmh
Humidity 75% 45% 62%
Pressure 29.77 in1008.1 mb 29.46 in997.6 mb -
Precipitation 0.02 in0.5 mm - -
Hour Temp Dew Point Humidity Winds Wind Gusts Pressure Precip Precip Rate Daily Precip Total
12:00 AM 44.8°F7.1°C 34.5°F1.4°C 67% 9.7 mph SSW15.6 kmh SSW 13.0 mph20.9 kmh 29.47 in998.0 mb 0.00 in0.0 mm 0.00 in0.0 mm 0.00 in0.0 mm
12:10 AM 44.6°F7.0°C 34.3°F1.3°C 67% 8.5 mph SW13.7 kmh SW 11.4 mph18.3 kmh 29.48 in998.3 mb 0.00 in0.0 mm 0.00 in0.0 mm 0.00 in0.0 mm
12:20 AM 44.6°F7.0°C 34.3°F1.3°C 67% 7.5 mph W12.1 kmh W 9.8 mph15.8 kmh 29.48 in998.3 mb 0.00 in0.0 mm 0.00 in0.0 mm 0.00 in0.0 mm
12:30 AM 44.6°F7.0°C 34.3°F1.3°C 67% 7.0 mph WSW11.3 kmh WSW 13.6 mph21.9 kmh 29.47 in998.0 mb 0.00 in0.0 mm 0.00 in0.0 mm 0.00 in0.0 mm
12:40 AM 44.2°F6.8°C 35.1°F1.7°C 70% 7.7 mph WNW12.4 kmh WNW 13.6 mph21.9 kmh 29.48 in998.3 mb 0.00 in0.0 mm 0.00 in0.0 mm 0.00 in0.0 mm
12:50 AM 43.3°F6.3°C 35.6°F2.0°C 74% 8.7 mph WSW14.0 kmh WSW 14.5 mph23.3 kmh 29.48 in998.3 mb 0.01 in0.3 mm 0.06 in1.5 mm 0.01 in0.3 mm
01:00 AM 43.0°F6.1°C 35.6°F2.0°C 75% 8.9 mph NW14.3 kmh NW 20.6 mph33.2 kmh 29.47 in998.0 mb 0.01 in0.3 mm 0.00 in0.0 mm 0.01 in0.3 mm
01:10 AM 43.0°F6.1°C 35.3°F1.8°C 74% 9.2 mph SW14.8 kmh SW 16.8 mph27.0 kmh 29.46 in997.6 mb 0.01 in0.3 mm 0.00 in0.0 mm 0.01 in0.3 mm
01:20 AM 43.0°F6.1°C 35.3°F1.8°C 74% 7.3 mph WSW11.7 kmh WSW 9.8 mph15.8 kmh 29.47 in998.0 mb 0.01 in0.3 mm 0.00 in0.0 mm 0.01 in0.3 mm
01:30 AM 43.5°F6.4°C 35.5°F1.9°C 73% 6.3 mph WSW10.1 kmh WSW 9.8 mph15.8 kmh 29.48 in998.3 mb 0.01 in0.3 mm 0.00 in0.0 mm 0.01 in0.3 mm
01:40 AM 43.7°F6.5°C 35.6°F2.0°C 73% 4.8 mph SW7.7 kmh SW 8.3 mph13.4 kmh 29.48 in998.3 mb 0.01 in0.3 mm 0.00 in0.0 mm 0.01 in0.3 mm
01:50 AM 44.2°F6.8°C 35.4°F1.9°C 71% 8.3 mph WNW13.4 kmh WNW 13.0 mph20.9 kmh 29.49 in998.6 mb 0.00 in0.0 mm 0.00 in0.0 mm 0.01 in0.3 mm
02:00 AM 44.1°F6.7°C 34.9°F1.6°C 70% 7.0 mph W11.3 kmh W 13.0 mph20.9 kmh 29.48 in998.3 mb 0.00 in0.0 mm 0.00 in0.0 mm 0.01 in0.3 mm
02:10 AM 43.9°F6.6°C 34.4°F1.3°C 69% 7.4 mph W11.9 kmh W 12.1 mph19.5 kmh 29.48 in998.3 mb 0.00 in0.0 mm 0.00 in0.0 mm 0.01 in0.3 mm
02:20 AM 44.1°F6.7°C 34.2°F1.2°C 68% 9.4 mph WSW15.1 kmh WSW 13.0 mph20.9 kmh 29.47 in998.0 mb 0.00 in0.0 mm 0.00 in0.0 mm 0.01 in0.3 mm
02:30 AM 43.9°F6.6°C 34.0°F1.1°C 68% 9.9 mph NW15.9 kmh NW 14.5 mph23.3 kmh 29.47 in998.0 mb 0.00 in0.0 mm 0.00 in0.0 mm 0.01 in0.3 mm
02:40 AM 44.1°F6.7°C 34.6°F1.4°C 69% 12.1 mph W19.5 kmh W 17.4 mph28.0 kmh 29.47 in998.0 mb 0.00 in0.0 mm 0.00 in0.0 mm 0.01 in0.3 mm
02:50 AM 44.2°F6.8°C 34.7°F1.5°C 69% 11.3 mph W18.2 kmh W 20.6 mph33.2 kmh 29.46 in997.6 mb 0.00 in0.0 mm 0.00 in0.0 mm 0.01 in0.3 mm
03:00 AM 44.4°F6.9°C 34.5°F1.4°C 68% 12.7 mph WNW20.4 kmh WNW 16.8 mph27.0 kmh 29.46 in997.6 mb 0.00 in0.0 mm 0.00 in0.0 mm 0.01 in0.3 mm
03:10 AM 44.6°F7.0°C 34.7°F1.5°C 68% 15.0 mph NW24.1 kmh NW 23.5 mph37.8 kmh 29.46 in997.6 mb 0.00 in0.0 mm 0.00 in0.0 mm 0.01 in0.3 mm
03:20 AM 44.4°F6.9°C 34.5°F1.4°C 68% 13.8 mph NW22.2 kmh NW 23.5 mph37.8 kmh 29.46 in997.6 mb 0.00 in0.0 mm 0.00 in0.0 mm 0.01 in0.3 mm
03:30 AM 44.4°F6.9°C 34.9°F1.6°C 69% 12.5 mph NW20.1 kmh NW 19.7 mph31.7 kmh 29.46 in997.6 mb 0.00 in0.0 mm 0.00 in0.0 mm 0.01 in0.3 mm
03:40 AM 45.0°F7.2°C 35.0°F1.7°C 68% 16.7 mph NW26.9 kmh NW 24.4 mph39.3 kmh 29.46 in997.6 mb 0.00 in0.0 mm 0.00 in0.0 mm 0.01 in0.3 mm
03:50 AM 45.0°F7.2°C 35.0°F1.7°C 68% 12.5 mph NNW20.1 kmh NNW 19.0 mph30.6 kmh 29.46 in997.6 mb 0.00 in0.0 mm 0.00 in0.0 mm 0.01 in0.3 mm
04:00 AM 45.3°F7.4°C 35.0°F1.7°C 67% 17.2 mph NW27.7 kmh NW 22.1 mph35.6 kmh 29.46 in997.6 mb 0.00 in0.0 mm 0.00 in0.0 mm 0.01 in0.3 mm
04:10 AM 45.1°F7.3°C 34.8°F1.6°C 67% 15.1 mph NW24.3 kmh NW 19.7 mph31.7 kmh 29.46 in997.6 mb 0.00 in0.0 mm 0.00 in0.0 mm 0.01 in0.3 mm
04:20 AM 45.0°F7.2°C 35.0°F1.7°C 68% 13.8 mph NW22.2 kmh NW 19.0 mph30.6 kmh 29.47 in998.0 mb 0.00 in0.0 mm 0.00 in0.0 mm 0.01 in0.3 mm
04:30 AM 45.1°F7.3°C 34.8°F1.6°C 67% 12.6 mph NW20.3 kmh NW 17.4 mph28.0 kmh 29.47 in998.0 mb 0.00 in0.0 mm 0.00 in0.0 mm 0.01 in0.3 mm
04:40 AM 45.3°F7.4°C 35.0°F1.7°C 67% 13.5 mph W21.7 kmh W 21.3 mph34.3 kmh 29.47 in998.0 mb 0.00 in0.0 mm 0.00 in0.0 mm 0.01 in0.3 mm
04:50 AM 45.3°F7.4°C 35.0°F1.7°C 67% 15.8 mph W25.4 kmh W 18.3 mph29.5 kmh 29.47 in998.0 mb 0.00 in0.0 mm 0.00 in0.0 mm 0.01 in0.3 mm
05:00 AM 45.1°F7.3°C 35.2°F1.8°C 68% 13.4 mph NW21.6 kmh NW 19.7 mph31.7 kmh 29.48 in998.3 mb 0.00 in0.0 mm 0.00 in0.0 mm 0.01 in0.3 mm
05:10 AM 45.1°F7.3°C 35.6°F2.0°C 69% 13.4 mph WNW21.6 kmh WNW 18.3 mph29.5 kmh 29.48 in998.3 mb 0.00 in0.0 mm 0.00 in0.0 mm 0.01 in0.3 mm
05:20 AM 45.0°F7.2°C 35.4°F1.9°C 69% 11.8 mph NW19.0 kmh NW 15.9 mph25.6 kmh 29.49 in998.6 mb 0.00 in0.0 mm 0.00 in0.0 mm 0.01 in0.3 mm
05:30 AM 45.0°F7.2°C 35.4°F1.9°C 69% 12.8 mph NNW20.6 kmh NNW 15.9 mph25.6 kmh 29.49 in998.6 mb 0.00 in0.0 mm 0.00 in0.0 mm 0.01 in0.3 mm
05:40 AM 45.1°F7.3°C 35.2°F1.8°C 68% 11.4 mph NW18.3 kmh NW 18.3 mph29.5 kmh 29.50 in999.0 mb 0.00 in0.0 mm 0.00 in0.0 mm 0.01 in0.3 mm
05:50 AM 45.3°F7.4°C 35.0°F1.7°C 67% 13.8 mph NW22.2 kmh NW 20.6 mph33.2 kmh 29.49 in998.6 mb 0.00 in0.0 mm 0.00 in0.0 mm 0.01 in0.3 mm
06:00 AM 45.3°F7.4°C 35.0°F1.7°C 67% 13.3 mph NW21.4 kmh NW 18.3 mph29.5 kmh 29.50 in999.0 mb 0.00 in0.0 mm 0.00 in0.0 mm 0.01 in0.3 mm
06:10 AM 45.5°F7.5°C 33.6°F0.9°C 63% 13.4 mph WNW21.6 kmh WNW 15.9 mph25.6 kmh 29.50 in999.0 mb 0.00 in0.0 mm 0.00 in0.0 mm 0.01 in0.3 mm
06:20 AM 45.3°F7.4°C 35.8°F2.1°C 69% 13.1 mph NW21.1 kmh NW 19.0 mph30.6 kmh 29.51 in999.3 mb 0.00 in0.0 mm 0.00 in0.0 mm 0.01 in0.3 mm
06:30 AM 45.5°F7.5°C 33.6°F0.9°C 63% 14.9 mph WNW24.0 kmh WNW 19.0 mph30.6 kmh 29.51 in999.3 mb 0.01 in0.3 mm 0.06 in1.5 mm 0.02 in0.5 mm
06:40 AM 45.7°F7.6°C 33.8°F1.0°C 63% 15.0 mph NW24.1 kmh NW 22.8 mph36.7 kmh 29.52 in999.7 mb 0.01 in0.3 mm 0.00 in0.0 mm 0.02 in0.5 mm
06:50 AM 45.7°F7.6°C 34.2°F1.2°C 64% 15.7 mph NNW25.3 kmh NNW 19.7 mph31.7 kmh 29.52 in999.7 mb 0.01 in0.3 mm 0.00 in0.0 mm 0.02 in0.5 mm
07:00 AM 45.3°F7.4°C 36.1°F2.3°C 70% 16.0 mph NW25.7 kmh NW 23.5 mph37.8 kmh 29.53 in1000.0 mb 0.01 in0.3 mm 0.00 in0.0 mm 0.02 in0.5 mm
07:10 AM 45.1°F7.3°C 36.3°F2.4°C 71% 20.6 mph WNW33.2 kmh WNW 25.9 mph41.7 kmh 29.53 in1000.0 mb 0.01 in0.3 mm 0.00 in0.0 mm 0.02 in0.5 mm
07:20 AM 45.0°F7.2°C 36.5°F2.5°C 72% 16.8 mph NW27.0 kmh NW 23.5 mph37.8 kmh 29.54 in1000.3 mb 0.01 in0.3 mm 0.00 in0.0 mm 0.02 in0.5 mm
07:30 AM 45.1°F7.3°C 36.7°F2.6°C 72% 17.7 mph NW28.5 kmh NW 26.6 mph42.8 kmh 29.55 in1000.7 mb 0.00 in0.0 mm 0.00 in0.0 mm 0.02 in0.5 mm
07:40 AM 45.7°F7.6°C 35.4°F1.9°C 67% 16.5 mph NNW26.6 kmh NNW 19.7 mph31.7 kmh 29.56 in1001.0 mb 0.00 in0.0 mm 0.00 in0.0 mm 0.02 in0.5 mm
07:50 AM 46.2°F7.9°C 35.1°F1.7°C 65% 15.8 mph NW25.4 kmh NW 19.7 mph31.7 kmh 29.57 in1001.4 mb 0.00 in0.0 mm 0.00 in0.0 mm 0.02 in0.5 mm
08:00 AM 46.4°F8.0°C 34.9°F1.6°C 64% 16.9 mph WNW27.2 kmh WNW 22.8 mph36.7 kmh 29.56 in1001.0 mb 0.00 in0.0 mm 0.00 in0.0 mm 0.02 in0.5 mm
08:10 AM 47.5°F8.6°C 35.5°F1.9°C 63% 15.9 mph W25.6 kmh W 23.5 mph37.8 kmh 29.57 in1001.4 mb 0.00 in0.0 mm 0.00 in0.0 mm 0.02 in0.5 mm
08:20 AM 47.1°F8.4°C 34.8°F1.6°C 62% 18.7 mph W30.1 kmh W 33.6 mph54.1 kmh 29.58 in1001.7 mb 0.00 in0.0 mm 0.00 in0.0 mm 0.02 in0.5 mm
08:30 AM 46.9°F8.3°C 34.6°F1.4°C 62% 16.6 mph WNW26.7 kmh WNW 24.4 mph39.3 kmh 29.57 in1001.4 mb 0.00 in0.0 mm 0.00 in0.0 mm 0.02 in0.5 mm
08:40 AM 47.1°F8.4°C 35.2°F1.8°C 63% 14.0 mph NW22.5 kmh NW 18.3 mph29.5 kmh 29.58 in1001.7 mb 0.00 in0.0 mm 0.00 in0.0 mm 0.02 in0.5 mm
08:50 AM 47.7°F8.7°C 35.3°F1.8°C 62% 14.6 mph NW23.5 kmh NW 22.1 mph35.6 kmh 29.59 in1002.0 mb 0.00 in0.0 mm 0.00 in0.0 mm 0.02 in0.5 mm
09:00 AM 47.8°F8.8°C 35.9°F2.2°C 63% 14.8 mph NW23.8 kmh NW 19.7 mph31.7 kmh 29.59 in1002.0 mb 0.00 in0.0 mm 0.00 in0.0 mm 0.02 in0.5 mm
09:10 AM 48.7°F9.3°C 35.9°F2.2°C 61% 14.5 mph NW23.3 kmh NW 19.0 mph30.6 kmh 29.59 in1002.0 mb 0.00 in0.0 mm 0.00 in0.0 mm 0.02 in0.5 mm
09:20 AM 49.1°F9.5°C 35.8°F2.1°C 60% 16.7 mph WNW26.9 kmh WNW 20.6 mph33.2 kmh 29.60 in1002.4 mb 0.00 in0.0 mm 0.00 in0.0 mm 0.02 in0.5 mm
09:30 AM 49.6°F9.8°C 36.8°F2.7°C 61% 15.0 mph NW24.1 kmh NW 19.7 mph31.7 kmh 29.60 in1002.4 mb 0.00 in0.0 mm 0.00 in0.0 mm 0.02 in0.5 mm
09:40 AM 50.4°F10.2°C 35.3°F1.8°C 56% 16.8 mph NW27.0 kmh NW 22.8 mph36.7 kmh 29.62 in1003.0 mb 0.00 in0.0 mm 0.00 in0.0 mm 0.02 in0.5 mm
09:50 AM 49.6°F9.8°C 34.6°F1.4°C 56% 15.8 mph NW25.4 kmh NW 19.0 mph30.6 kmh 29.62 in1003.0 mb 0.00 in0.0 mm 0.00 in0.0 mm 0.02 in0.5 mm
10:00 AM 50.0°F10.0°C 35.8°F2.1°C 58% 16.4 mph NW26.4 kmh NW 21.3 mph34.3 kmh 29.62 in1003.0 mb 0.00 in0.0 mm 0.00 in0.0 mm 0.02 in0.5 mm
10:10 AM 49.1°F9.5°C 34.1°F1.2°C 56% 17.4 mph NW28.0 kmh NW 23.5 mph37.8 kmh 29.63 in1003.4 mb 0.00 in0.0 mm 0.00 in0.0 mm 0.02 in0.5 mm
10:20 AM 49.6°F9.8°C 34.1°F1.2°C 55% 17.4 mph NW28.0 kmh NW 26.6 mph42.8 kmh 29.63 in1003.4 mb 0.00 in0.0 mm 0.00 in0.0 mm 0.02 in0.5 mm
10:30 AM 49.1°F9.5°C 33.6°F0.9°C 55% 16.5 mph NW26.6 kmh NW 22.8 mph36.7 kmh 29.63 in1003.4 mb 0.00 in0.0 mm 0.00 in0.0 mm 0.02 in0.5 mm
10:40 AM 48.9°F9.4°C 33.9°F1.1°C 56% 17.0 mph WNW27.4 kmh WNW 21.3 mph34.3 kmh 29.64 in1003.7 mb 0.00 in0.0 mm 0.00 in0.0 mm 0.02 in0.5 mm
10:50 AM 48.9°F9.4°C 33.5°F0.8°C 55% 15.6 mph NW25.1 kmh NW 21.3 mph34.3 kmh 29.64 in1003.7 mb 0.00 in0.0 mm 0.00 in0.0 mm 0.02 in0.5 mm
11:00 AM 49.3°F9.6°C 33.4°F0.8°C 54% 17.1 mph NNW27.5 kmh NNW 22.1 mph35.6 kmh 29.64 in1003.7 mb 0.00 in0.0 mm 0.00 in0.0 mm 0.02 in0.5 mm
11:10 AM 50.5°F10.3°C 34.5°F1.4°C 54% 15.6 mph NW25.1 kmh NW 22.1 mph35.6 kmh 29.63 in1003.4 mb 0.00 in0.0 mm 0.00 in0.0 mm 0.02 in0.5 mm
11:20 AM 50.7°F10.4°C 34.2°F1.2°C 53% 17.0 mph NW27.4 kmh NW 24.4 mph39.3 kmh 29.65 in1004.1 mb 0.00 in0.0 mm 0.00 in0.0 mm 0.02 in0.5 mm
11:30 AM 51.1°F10.6°C 33.6°F0.9°C 51% 21.7 mph NW34.9 kmh NW 32.0 mph51.5 kmh 29.64 in1003.7 mb 0.00 in0.0 mm 0.00 in0.0 mm 0.02 in0.5 mm
11:40 AM 51.3°F10.7°C 33.8°F1.0°C 51% 18.4 mph NW29.6 kmh NW 24.4 mph39.3 kmh 29.65 in1004.1 mb 0.00 in0.0 mm 0.00 in0.0 mm 0.02 in0.5 mm
11:50 AM 50.5°F10.3°C 33.1°F0.6°C 51% 21.5 mph NW34.6 kmh NW 27.3 mph43.9 kmh 29.66 in1004.4 mb 0.00 in0.0 mm 0.00 in0.0 mm 0.02 in0.5 mm
12:00 PM 51.1°F10.6°C 33.6°F0.9°C 51% 21.6 mph NW34.8 kmh NW 27.3 mph43.9 kmh 29.65 in1004.1 mb 0.00 in0.0 mm 0.00 in0.0 mm 0.02 in0.5 mm
12:10 PM 51.4°F10.8°C 33.9°F1.1°C 51% 20.3 mph NW32.7 kmh NW 24.4 mph39.3 kmh 29.65 in1004.1 mb 0.00 in0.0 mm 0.00 in0.0 mm 0.02 in0.5 mm
12:20 PM 52.2°F11.2°C 34.6°F1.4°C 51% 18.8 mph NW30.3 kmh NW 25.9 mph41.7 kmh 29.65 in1004.1 mb 0.00 in0.0 mm 0.00 in0.0 mm 0.02 in0.5 mm
12:30 PM 51.8°F11.0°C 33.8°F1.0°C 50% 19.1 mph WNW30.7 kmh WNW 24.4 mph39.3 kmh 29.66 in1004.4 mb 0.00 in0.0 mm 0.00 in0.0 mm 0.02 in0.5 mm
12:40 PM 52.3°F11.3°C 32.2°F0.1°C 46% 17.3 mph NW27.8 kmh NW 26.6 mph42.8 kmh 29.66 in1004.4 mb 0.00 in0.0 mm 0.00 in0.0 mm 0.02 in0.5 mm
12:50 PM 52.3°F11.3°C 33.2°F0.7°C 48% 19.3 mph NW31.1 kmh NW 28.9 mph46.5 kmh 29.65 in1004.1 mb 0.00 in0.0 mm 0.00 in0.0 mm 0.02 in0.5 mm
01:00 PM 51.3°F10.7°C 31.7°F-0.2°C 47% 19.0 mph NW30.6 kmh NW 22.8 mph36.7 kmh 29.66 in1004.4 mb 0.00 in0.0 mm 0.00 in0.0 mm 0.02 in0.5 mm
01:10 PM 51.6°F10.9°C 31.5°F-0.3°C 46% 19.4 mph NW31.2 kmh NW 25.9 mph41.7 kmh 29.66 in1004.4 mb 0.00 in0.0 mm 0.00 in0.0 mm 0.02 in0.5 mm
01:20 PM 52.0°F11.1°C 31.3°F-0.4°C 45% 20.2 mph NW32.5 kmh NW 33.6 mph54.1 kmh 29.68 in1005.1 mb 0.00 in0.0 mm 0.00 in0.0 mm 0.02 in0.5 mm
01:30 PM 52.2°F11.2°C 32.0°F0.0°C 46% 17.7 mph NW28.5 kmh NW 27.3 mph43.9 kmh 29.68 in1005.1 mb 0.00 in0.0 mm 0.00 in0.0 mm 0.02 in0.5 mm
01:40 PM 52.7°F11.5°C 32.0°F0.0°C 45% 17.8 mph NW28.6 kmh NW 30.4 mph48.9 kmh 29.68 in1005.1 mb 0.00 in0.0 mm 0.00 in0.0 mm 0.02 in0.5 mm
01:50 PM 53.2°F11.8°C 33.0°F0.6°C 46% 15.1 mph WNW24.3 kmh WNW 18.3 mph29.5 kmh 29.67 in1004.7 mb 0.00 in0.0 mm 0.00 in0.0 mm 0.02 in0.5 mm
02:00 PM 52.0°F11.1°C 32.4°F0.2°C 47% 17.2 mph NW27.7 kmh NW 23.5 mph37.8 kmh 29.67 in1004.7 mb 0.00 in0.0 mm 0.00 in0.0 mm 0.02 in0.5 mm
02:10 PM 52.7°F11.5°C 34.1°F1.2°C 49% 13.8 mph NW22.2 kmh NW 18.3 mph29.5 kmh 29.68 in1005.1 mb 0.00 in0.0 mm 0.00 in0.0 mm 0.02 in0.5 mm
02:20 PM 51.8°F11.0°C 31.1°F-0.5°C 45% 18.5 mph NW29.8 kmh NW 23.5 mph37.8 kmh 29.67 in1004.7 mb 0.00 in0.0 mm 0.00 in0.0 mm 0.02 in0.5 mm
02:30 PM 51.4°F10.8°C 31.9°F-0.1°C 47% 17.7 mph WNW28.5 kmh WNW 23.5 mph37.8 kmh 29.68 in1005.1 mb 0.00 in0.0 mm 0.00 in0.0 mm 0.02 in0.5 mm
02:40 PM 50.9°F10.5°C 32.4°F0.2°C 49% 16.9 mph NW27.2 kmh NW 21.3 mph34.3 kmh 29.68 in1005.1 mb 0.00 in0.0 mm 0.00 in0.0 mm 0.02 in0.5 mm
02:50 PM 50.9°F10.5°C 32.9°F0.5°C 50% 14.0 mph WNW22.5 kmh WNW 17.4 mph28.0 kmh 29.70 in1005.8 mb 0.00 in0.0 mm 0.00 in0.0 mm 0.02 in0.5 mm
03:00 PM 51.1°F10.6°C 33.1°F0.6°C 50% 15.0 mph NW24.1 kmh NW 22.1 mph35.6 kmh 29.70 in1005.8 mb 0.00 in0.0 mm 0.00 in0.0 mm 0.02 in0.5 mm
03:10 PM 50.9°F10.5°C 32.9°F0.5°C 50% 14.4 mph NW23.2 kmh NW 18.3 mph29.5 kmh 29.69 in1005.4 mb 0.00 in0.0 mm 0.00 in0.0 mm 0.02 in0.5 mm
03:20 PM 50.7°F10.4°C 32.8°F0.4°C 50% 12.1 mph NW19.5 kmh NW 20.6 mph33.2 kmh 29.70 in1005.8 mb 0.00 in0.0 mm 0.00 in0.0 mm 0.02 in0.5 mm
03:30 PM 50.4°F10.2°C 32.9°F0.5°C 51% 15.0 mph NW24.1 kmh NW 16.8 mph27.0 kmh 29.71 in1006.1 mb 0.00 in0.0 mm 0.00 in0.0 mm 0.02 in0.5 mm
03:40 PM 50.4°F10.2°C 33.4°F0.8°C 52% 15.0 mph NW24.1 kmh NW 17.4 mph28.0 kmh 29.71 in1006.1 mb 0.00 in0.0 mm 0.00 in0.0 mm 0.02 in0.5 mm
03:50 PM 50.9°F10.5°C 33.4°F0.8°C 51% 16.4 mph NW26.4 kmh NW 21.3 mph34.3 kmh 29.71 in1006.1 mb 0.00 in0.0 mm 0.00 in0.0 mm 0.02 in0.5 mm
04:00 PM 51.8°F11.0°C 34.3°F1.3°C 51% 13.6 mph NW21.9 kmh NW 17.4 mph28.0 kmh 29.72 in1006.4 mb 0.00 in0.0 mm 0.00 in0.0 mm 0.02 in0.5 mm
04:10 PM 51.4°F10.8°C 33.9°F1.1°C 51% 12.6 mph NW20.3 kmh NW 16.8 mph27.0 kmh 29.71 in1006.1 mb 0.00 in0.0 mm 0.00 in0.0 mm 0.02 in0.5 mm
04:20 PM 51.1°F10.6°C 33.6°F0.9°C 51% 13.1 mph NW21.1 kmh NW 16.8 mph27.0 kmh 29.72 in1006.4 mb 0.00 in0.0 mm 0.00 in0.0 mm 0.02 in0.5 mm
04:30 PM 50.4°F10.2°C 33.4°F0.8°C 52% 14.5 mph NW23.3 kmh NW 22.1 mph35.6 kmh 29.71 in1006.1 mb 0.00 in0.0 mm 0.00 in0.0 mm 0.02 in0.5 mm
04:40 PM 49.8°F9.9°C 33.4°F0.8°C 53% 14.5 mph NW23.3 kmh NW 19.0 mph30.6 kmh 29.72 in1006.4 mb 0.00 in0.0 mm 0.00 in0.0 mm 0.02 in0.5 mm
04:50 PM 49.3°F9.6°C 33.8°F1.0°C 55% 10.5 mph WNW16.9 kmh WNW 14.5 mph23.3 kmh 29.72 in1006.4 mb 0.00 in0.0 mm 0.00 in0.0 mm 0.02 in0.5 mm
05:00 PM 49.5°F9.7°C 34.4°F1.3°C 56% 13.4 mph NW21.6 kmh NW 18.3 mph29.5 kmh 29.73 in1006.8 mb 0.00 in0.0 mm 0.00 in0.0 mm 0.02 in0.5 mm
05:10 PM 50.0°F10.0°C 34.9°F1.6°C 56% 12.0 mph WNW19.3 kmh WNW 17.4 mph28.0 kmh 29.72 in1006.4 mb 0.00 in0.0 mm 0.00 in0.0 mm 0.02 in0.5 mm
05:20 PM 50.0°F10.0°C 34.5°F1.4°C 55% 10.3 mph NNW16.6 kmh NNW 13.6 mph21.9 kmh 29.73 in1006.8 mb 0.00 in0.0 mm 0.00 in0.0 mm 0.02 in0.5 mm
05:30 PM 49.5°F9.7°C 34.4°F1.3°C 56% 8.3 mph WNW13.4 kmh WNW 10.7 mph17.2 kmh 29.73 in1006.8 mb 0.00 in0.0 mm 0.00 in0.0 mm 0.02 in0.5 mm
05:40 PM 48.9°F9.4°C 34.8°F1.6°C 58% 8.8 mph WNW14.2 kmh WNW 12.1 mph19.5 kmh 29.74 in1007.1 mb 0.00 in0.0 mm 0.00 in0.0 mm 0.02 in0.5 mm
05:50 PM 48.4°F9.1°C 34.7°F1.5°C 59% 9.4 mph NW15.1 kmh NW 13.6 mph21.9 kmh 29.74 in1007.1 mb 0.00 in0.0 mm 0.00 in0.0 mm 0.02 in0.5 mm
06:00 PM 48.0°F8.9°C 34.8°F1.6°C 60% 7.6 mph WNW12.2 kmh WNW 10.7 mph17.2 kmh 29.75 in1007.5 mb 0.00 in0.0 mm 0.00 in0.0 mm 0.02 in0.5 mm
06:10 PM 47.7°F8.7°C 34.9°F1.6°C 61% 9.2 mph NW14.8 kmh NW 13.6 mph21.9 kmh 29.75 in1007.5 mb 0.00 in0.0 mm 0.00 in0.0 mm 0.02 in0.5 mm
06:20 PM 47.5°F8.6°C 34.7°F1.5°C 61% 10.2 mph NW16.4 kmh NW 13.6 mph21.9 kmh 29.75 in1007.5 mb 0.00 in0.0 mm 0.00 in0.0 mm 0.02 in0.5 mm
06:30 PM 47.3°F8.5°C 35.0°F1.7°C 62% 11.0 mph WNW17.7 kmh WNW 14.5 mph23.3 kmh 29.75 in1007.5 mb 0.00 in0.0 mm 0.00 in0.0 mm 0.02 in0.5 mm
06:40 PM 47.1°F8.4°C 35.2°F1.8°C 63% 12.1 mph NW19.5 kmh NW 19.0 mph30.6 kmh 29.75 in1007.5 mb 0.00 in0.0 mm 0.00 in0.0 mm 0.02 in0.5 mm
06:50 PM 46.9°F8.3°C 35.4°F1.9°C 64% 9.9 mph NW15.9 kmh NW 11.4 mph18.3 kmh 29.74 in1007.1 mb 0.00 in0.0 mm 0.00 in0.0 mm 0.02 in0.5 mm
07:00 PM 46.9°F8.3°C 35.4°F1.9°C 64% 9.7 mph NW15.6 kmh NW 13.6 mph21.9 kmh 29.75 in1007.5 mb 0.00 in0.0 mm 0.00 in0.0 mm 0.02 in0.5 mm
07:10 PM 47.1°F8.4°C 36.0°F2.2°C 65% 9.7 mph NW15.6 kmh NW 14.5 mph23.3 kmh 29.75 in1007.5 mb 0.00 in0.0 mm 0.00 in0.0 mm 0.02 in0.5 mm
07:20 PM 47.3°F8.5°C 36.1°F2.3°C 65% 9.1 mph W14.6 kmh W 15.9 mph25.6 kmh 29.75 in1007.5 mb 0.00 in0.0 mm 0.00 in0.0 mm 0.02 in0.5 mm
07:30 PM 47.1°F8.4°C 36.0°F2.2°C 65% 8.1 mph W13.0 kmh W 15.2 mph24.5 kmh 29.77 in1008.1 mb 0.00 in0.0 mm 0.00 in0.0 mm 0.02 in0.5 mm
07:40 PM 46.9°F8.3°C 36.6°F2.6°C 67% 6.6 mph W10.6 kmh W 10.7 mph17.2 kmh 29.76 in1007.8 mb 0.00 in0.0 mm 0.00 in0.0 mm 0.02 in0.5 mm
07:50 PM 46.9°F8.3°C 36.9°F2.7°C 68% 7.9 mph WNW12.7 kmh WNW 15.9 mph25.6 kmh 29.76 in1007.8 mb 0.00 in0.0 mm 0.00 in0.0 mm 0.02 in0.5 mm
08:00 PM 46.8°F8.2°C 37.5°F3.1°C 70% 8.5 mph WNW13.7 kmh WNW 13.0 mph20.9 kmh 29.75 in1007.5 mb 0.00 in0.0 mm 0.00 in0.0 mm 0.02 in0.5 mm
08:10 PM 46.8°F8.2°C 37.5°F3.1°C 70% 7.3 mph NW11.7 kmh NW 11.4 mph18.3 kmh 29.75 in1007.5 mb 0.00 in0.0 mm 0.00 in0.0 mm 0.02 in0.5 mm
08:20 PM 46.6°F8.1°C 37.3°F2.9°C 70% 7.8 mph WNW12.6 kmh WNW 11.4 mph18.3 kmh 29.76 in1007.8 mb 0.00 in0.0 mm 0.00 in0.0 mm 0.02 in0.5 mm
08:30 PM 46.4°F8.0°C 37.2°F2.9°C 70% 6.4 mph WNW10.3 kmh WNW 11.4 mph18.3 kmh 29.75 in1007.5 mb 0.00 in0.0 mm 0.00 in0.0 mm 0.02 in0.5 mm
08:40 PM 46.0°F7.8°C 36.8°F2.7°C 70% 5.7 mph NW9.2 kmh NW 9.8 mph15.8 kmh 29.75 in1007.5 mb 0.00 in0.0 mm 0.00 in0.0 mm 0.02 in0.5 mm
08:50 PM 46.2°F7.9°C 37.0°F2.8°C 70% 6.6 mph W10.6 kmh W 9.8 mph15.8 kmh 29.74 in1007.1 mb 0.00 in0.0 mm 0.00 in0.0 mm 0.02 in0.5 mm
09:00 PM 46.4°F8.0°C 37.2°F2.9°C 70% 6.2 mph W10.0 kmh W 8.3 mph13.4 kmh 29.74 in1007.1 mb 0.00 in0.0 mm 0.00 in0.0 mm 0.02 in0.5 mm
09:10 PM 46.8°F8.2°C 37.5°F3.1°C 70% 7.2 mph W11.6 kmh W 9.2 mph14.8 kmh 29.75 in1007.5 mb 0.00 in0.0 mm 0.00 in0.0 mm 0.02 in0.5 mm
09:20 PM 46.9°F8.3°C 37.7°F3.2°C 70% 6.1 mph WSW9.8 kmh WSW 10.7 mph17.2 kmh 29.74 in1007.1 mb 0.00 in0.0 mm 0.00 in0.0 mm 0.02 in0.5 mm
09:30 PM 46.9°F8.3°C 37.3°F2.9°C 69% 6.8 mph WSW10.9 kmh WSW 9.2 mph14.8 kmh 29.75 in1007.5 mb 0.00 in0.0 mm 0.00 in0.0 mm 0.02 in0.5 mm
09:40 PM 46.9°F8.3°C 36.9°F2.7°C 68% 6.4 mph WSW10.3 kmh WSW 10.7 mph17.2 kmh 29.75 in1007.5 mb 0.00 in0.0 mm 0.00 in0.0 mm 0.02 in0.5 mm
09:50 PM 46.8°F8.2°C 36.8°F2.7°C 68% 7.3 mph WNW11.7 kmh WNW 9.8 mph15.8 kmh 29.74 in1007.1 mb 0.00 in0.0 mm 0.00 in0.0 mm 0.02 in0.5 mm
10:00 PM 46.9°F8.3°C 36.9°F2.7°C 68% 6.9 mph WSW11.1 kmh WSW 9.8 mph15.8 kmh 29.73 in1006.8 mb 0.00 in0.0 mm 0.00 in0.0 mm 0.02 in0.5 mm
10:10 PM 46.8°F8.2°C 37.1°F2.8°C 69% 7.6 mph WNW12.2 kmh WNW 10.7 mph17.2 kmh 29.74 in1007.1 mb 0.00 in0.0 mm 0.00 in0.0 mm 0.02 in0.5 mm
10:20 PM 46.9°F8.3°C 37.7°F3.2°C 70% 7.4 mph WNW11.9 kmh WNW 10.7 mph17.2 kmh 29.73 in1006.8 mb 0.00 in0.0 mm 0.00 in0.0 mm 0.02 in0.5 mm
10:30 PM 46.9°F8.3°C 37.7°F3.2°C 70% 6.6 mph W10.6 kmh W 10.7 mph17.2 kmh 29.73 in1006.8 mb 0.00 in0.0 mm 0.00 in0.0 mm 0.02 in0.5 mm
10:40 PM 46.9°F8.3°C 37.7°F3.2°C 70% 7.3 mph SW11.7 kmh SW 13.0 mph20.9 kmh 29.73 in1006.8 mb 0.00 in0.0 mm 0.00 in0.0 mm 0.02 in0.5 mm
10:50 PM 47.1°F8.4°C 37.8°F3.2°C 70% 8.2 mph WSW13.2 kmh WSW 13.6 mph21.9 kmh 29.73 in1006.8 mb 0.00 in0.0 mm 0.00 in0.0 mm 0.02 in0.5 mm
11:00 PM 47.1°F8.4°C 37.8°F3.2°C 70% 6.8 mph NW10.9 kmh NW 9.2 mph14.8 kmh 29.72 in1006.4 mb 0.00 in0.0 mm 0.00 in0.0 mm 0.02 in0.5 mm
11:10 PM 47.1°F8.4°C 37.8°F3.2°C 70% 7.5 mph W12.1 kmh W 10.7 mph17.2 kmh 29.71 in1006.1 mb 0.00 in0.0 mm 0.00 in0.0 mm 0.02 in0.5 mm
11:20 PM 47.1°F8.4°C 37.8°F3.2°C 70% 7.3 mph WNW11.7 kmh WNW 9.8 mph15.8 kmh 29.71 in1006.1 mb 0.00 in0.0 mm 0.00 in0.0 mm 0.02 in0.5 mm
11:30 PM 47.3°F8.5°C 38.0°F3.3°C 70% 8.2 mph WNW13.2 kmh WNW 11.4 mph18.3 kmh 29.71 in1006.1 mb 0.00 in0.0 mm 0.00 in0.0 mm 0.02 in0.5 mm
11:40 PM 47.5°F8.6°C 38.2°F3.4°C 70% 5.9 mph WNW9.5 kmh WNW 9.2 mph14.8 kmh 29.71 in1006.1 mb 0.00 in0.0 mm 0.00 in0.0 mm 0.02 in0.5 mm
11:50 PM 47.7°F8.7°C 38.4°F3.6°C 70% 5.6 mph WSW9.0 kmh WSW 8.3 mph13.4 kmh 29.70 in1005.8 mb 0.00 in0.0 mm 0.00 in0.0 mm 0.02 in0.5 mm